createdAt,value
2024-02-04T00:00:04.854Z,4.90
2024-02-04T00:02:30.906Z,4.96
2024-02-04T00:04:56.684Z,4.99
2024-02-04T00:07:22.836Z,4.98
2024-02-04T00:09:48.869Z,4.99
2024-02-04T00:12:14.694Z,5.02
2024-02-04T00:14:40.465Z,5.03
2024-02-04T00:17:06.150Z,5.07
2024-02-04T00:19:32.151Z,5.02
2024-02-04T00:21:57.977Z,5.05
2024-02-04T00:24:24.511Z,5.05
2024-02-04T00:26:50.751Z,4.95
2024-02-04T00:29:16.555Z,4.94
2024-02-04T00:31:42.319Z,4.86
2024-02-04T00:34:08.227Z,4.88
2024-02-04T00:36:34.028Z,4.87
2024-02-04T00:38:59.714Z,4.86
2024-02-04T00:41:26.128Z,4.89
2024-02-04T00:43:52.584Z,4.95
2024-02-04T00:46:18.323Z,4.88
2024-02-04T00:48:44.183Z,4.94
2024-02-04T00:51:09.981Z,4.97
2024-02-04T00:53:35.833Z,5.00
2024-02-04T00:56:05.368Z,4.99
2024-02-04T00:58:31.316Z,4.98
2024-02-04T01:00:57.315Z,4.96
2024-02-04T01:03:23.246Z,5.02
2024-02-04T01:05:49.071Z,5.03
2024-02-04T01:08:14.841Z,5.11
2024-02-04T01:10:40.492Z,5.10
2024-02-04T01:13:06.370Z,5.11
2024-02-04T01:15:32.262Z,5.06
2024-02-04T01:17:57.982Z,5.14
2024-02-04T01:20:23.799Z,5.05
2024-02-04T01:22:49.470Z,5.11
2024-02-04T01:25:15.547Z,5.04
2024-02-04T01:27:41.416Z,5.04
2024-02-04T01:30:07.793Z,5.09
2024-02-04T01:32:33.532Z,5.11
2024-02-04T01:34:59.333Z,5.07
2024-02-04T01:37:25.096Z,5.15
2024-02-04T01:39:50.884Z,5.15
2024-02-04T01:42:16.606Z,5.21
2024-02-04T01:44:43.213Z,5.26
2024-02-04T01:47:09.356Z,5.29
2024-02-04T01:49:35.613Z,5.30
2024-02-04T01:52:02.699Z,5.31
2024-02-04T01:54:28.689Z,5.34
2024-02-04T01:56:56.094Z,5.35
2024-02-04T01:59:29.576Z,5.42
2024-02-04T02:01:55.860Z,5.42
2024-02-04T02:04:22.517Z,5.42
2024-02-04T02:06:49.230Z,5.41
2024-02-04T02:09:15.204Z,5.39
2024-02-04T02:11:52.893Z,5.35
2024-02-04T02:14:24.264Z,5.37
2024-02-04T02:16:50.081Z,5.34
2024-02-04T02:19:29.290Z,5.36
2024-02-04T02:22:08.088Z,5.33
2024-02-04T02:24:43.168Z,5.29
2024-02-04T02:27:09.043Z,5.36
2024-02-04T02:29:35.216Z,5.42
2024-02-04T02:32:02.464Z,5.46
2024-02-04T02:34:35.460Z,5.39
2024-02-04T02:37:22.659Z,5.39
2024-02-04T02:39:58.039Z,5.47
2024-02-04T02:42:25.058Z,5.46
2024-02-04T02:44:51.798Z,5.45
2024-02-04T02:47:18.953Z,5.54
2024-02-04T02:49:45.101Z,5.58
2024-02-04T02:52:10.894Z,5.61
2024-02-04T02:54:36.670Z,5.66
2024-02-04T02:57:02.492Z,5.61
2024-02-04T02:59:28.332Z,5.58
2024-02-04T03:01:54.143Z,5.57
2024-02-04T03:04:19.955Z,5.55
2024-02-04T03:06:45.774Z,5.56
2024-02-04T03:09:11.606Z,5.58
2024-02-04T03:11:38.975Z,5.63
2024-02-04T03:14:04.687Z,5.70
2024-02-04T03:16:30.351Z,5.72
2024-02-04T03:18:56.078Z,5.73
2024-02-04T03:21:22.086Z,5.73
2024-02-04T03:23:47.823Z,5.77
2024-02-04T03:26:20.099Z,5.78
2024-02-04T03:28:46.033Z,5.79
2024-02-04T03:31:11.749Z,5.82
2024-02-04T03:33:37.622Z,5.81
2024-02-04T03:36:03.424Z,5.87
2024-02-04T03:38:29.147Z,5.91
2024-02-04T03:40:55.996Z,5.92
2024-02-04T03:43:21.668Z,5.96
2024-02-04T03:45:47.471Z,5.92
2024-02-04T03:48:13.254Z,5.94
2024-02-04T03:50:39.239Z,5.95
2024-02-04T03:53:05.063Z,5.99
2024-02-04T03:55:30.821Z,5.96
2024-02-04T03:57:58.466Z,5.97
2024-02-04T04:00:24.226Z,6.03
2024-02-04T04:02:50.070Z,6.04
2024-02-04T04:05:15.820Z,6.04
2024-02-04T04:07:42.213Z,6.04
2024-02-04T04:10:08.350Z,6.11
2024-02-04T04:12:34.176Z,6.14
2024-02-04T04:14:59.867Z,6.15
2024-02-04T04:17:25.601Z,6.18
2024-02-04T04:19:51.419Z,6.11
2024-02-04T04:22:17.287Z,6.15
2024-02-04T04:24:43.009Z,6.05
2024-02-04T04:27:08.700Z,6.02
2024-02-04T04:29:34.543Z,6.09
2024-02-04T04:32:00.207Z,6.12
2024-02-04T04:34:25.875Z,6.16
2024-02-04T04:36:51.607Z,6.17
2024-02-04T04:39:17.339Z,6.18
2024-02-04T04:41:44.793Z,6.17
2024-02-04T04:44:10.559Z,6.20
2024-02-04T04:46:39.705Z,6.29
2024-02-04T04:49:05.859Z,6.34
2024-02-04T04:51:31.869Z,6.38
2024-02-04T04:53:57.555Z,6.48
2024-02-04T04:56:23.254Z,6.56
2024-02-04T04:58:49.521Z,6.66
2024-02-04T05:01:15.281Z,6.73
2024-02-04T05:03:41.619Z,6.76
2024-02-04T05:06:07.376Z,6.82
2024-02-04T05:08:33.085Z,6.79
2024-02-04T05:10:58.759Z,6.80
2024-02-04T05:13:24.536Z,6.77
2024-02-04T05:15:50.204Z,6.75
2024-02-04T05:18:16.032Z,6.76
2024-02-04T05:20:41.872Z,6.76
2024-02-04T05:23:07.545Z,6.72
2024-02-04T05:25:33.500Z,6.68
2024-02-04T05:27:59.197Z,6.57
2024-02-04T05:30:24.978Z,6.61
2024-02-04T05:32:50.947Z,6.55
2024-02-04T05:35:16.759Z,6.58
2024-02-04T05:37:42.513Z,6.60
2024-02-04T05:40:08.867Z,6.61
2024-02-04T05:42:36.344Z,6.60
2024-02-04T05:45:02.110Z,6.64
2024-02-04T05:47:27.847Z,6.71
2024-02-04T05:49:53.745Z,6.78
2024-02-04T05:52:19.515Z,6.84
2024-02-04T05:54:45.906Z,6.84
2024-02-04T05:57:13.068Z,6.82
2024-02-04T05:59:40.086Z,6.90
2024-02-04T06:02:05.956Z,6.99
2024-02-04T06:04:31.792Z,7.03
2024-02-04T06:06:57.790Z,7.11
2024-02-04T06:09:23.614Z,7.17
2024-02-04T06:11:49.409Z,7.23
2024-02-04T06:14:15.094Z,7.25
2024-02-04T06:16:40.815Z,7.32
2024-02-04T06:19:06.944Z,7.35
2024-02-04T06:21:32.794Z,7.40
2024-02-04T06:23:58.552Z,7.43
2024-02-04T06:26:25.161Z,7.49
2024-02-04T06:28:52.459Z,7.53
2024-02-04T06:31:19.558Z,7.57
2024-02-04T06:33:45.613Z,7.57
2024-02-04T06:36:11.886Z,7.60
2024-02-04T06:38:38.392Z,7.64
2024-02-04T06:41:04.336Z,7.64
2024-02-04T06:43:30.253Z,7.67
2024-02-04T06:45:56.372Z,7.71
2024-02-04T06:48:22.285Z,7.75
2024-02-04T06:50:49.171Z,7.77
2024-02-04T06:53:15.649Z,7.79
2024-02-04T06:55:41.759Z,7.82
2024-02-04T06:58:07.556Z,7.85
2024-02-04T07:00:33.467Z,7.93
2024-02-04T07:02:59.347Z,7.90
2024-02-04T07:05:26.604Z,7.97
2024-02-04T07:07:53.464Z,8.01
2024-02-04T07:10:20.189Z,8.08
2024-02-04T07:12:46.221Z,8.14
2024-02-04T07:15:12.152Z,8.21
2024-02-04T07:17:38.396Z,8.25
2024-02-04T07:20:05.125Z,8.41
2024-02-04T07:22:31.344Z,8.66
2024-02-04T07:24:57.856Z,9.12
2024-02-04T07:27:24.202Z,9.53
2024-02-04T07:29:50.353Z,9.67
2024-02-04T07:32:17.077Z,9.76
2024-02-04T07:34:43.406Z,9.75
2024-02-04T07:37:10.070Z,9.60
2024-02-04T07:39:36.429Z,9.63
2024-02-04T07:42:02.721Z,9.74
2024-02-04T07:44:30.405Z,9.89
2024-02-04T07:46:56.818Z,9.94
2024-02-04T07:49:23.226Z,9.94
2024-02-04T07:51:49.319Z,9.86
2024-02-04T07:54:15.085Z,9.76
2024-02-04T07:56:40.764Z,9.51
2024-02-04T07:59:06.440Z,9.37
2024-02-04T08:01:32.306Z,9.34
2024-02-04T08:03:58.371Z,9.25
2024-02-04T08:06:24.194Z,9.31
2024-02-04T08:08:51.922Z,9.29
2024-02-04T08:11:19.191Z,9.19
2024-02-04T08:13:45.420Z,9.11
2024-02-04T08:16:12.044Z,9.04
2024-02-04T08:18:38.146Z,9.05
2024-02-04T08:21:04.695Z,9.07
2024-02-04T08:23:30.570Z,9.14
2024-02-04T08:25:57.943Z,9.24
2024-02-04T08:28:25.004Z,9.23
2024-02-04T08:30:51.151Z,9.18
2024-02-04T08:33:16.998Z,9.29
2024-02-04T08:35:42.732Z,9.27
2024-02-04T08:38:08.430Z,9.28
2024-02-04T08:40:34.134Z,9.40
2024-02-04T08:42:59.974Z,9.56
2024-02-04T08:45:25.763Z,9.63
2024-02-04T08:47:51.520Z,9.64
2024-02-04T08:50:17.342Z,9.71
2024-02-04T08:52:43.066Z,9.68
2024-02-04T08:55:10.345Z,9.67
2024-02-04T08:57:36.342Z,9.77
2024-02-04T09:00:02.092Z,9.88
2024-02-04T09:02:27.772Z,10.04
2024-02-04T09:04:54.247Z,10.12
2024-02-04T09:07:20.214Z,10.12
2024-02-04T09:09:50.558Z,10.12
2024-02-04T09:12:16.355Z,9.93
2024-02-04T09:14:42.095Z,10.01
2024-02-04T09:17:07.974Z,9.92
2024-02-04T09:19:34.212Z,9.94
2024-02-04T09:22:02.747Z,10.03
2024-02-04T09:24:29.549Z,10.02
2024-02-04T09:26:55.523Z,10.07
2024-02-04T09:29:21.535Z,10.07
2024-02-04T09:31:47.335Z,10.12
2024-02-04T09:34:13.500Z,10.11
2024-02-04T09:36:39.717Z,10.08
2024-02-04T09:39:05.816Z,10.27
2024-02-04T09:41:31.597Z,10.34
2024-02-04T09:43:58.974Z,10.47
2024-02-04T09:46:24.991Z,10.81
2024-02-04T09:48:53.487Z,11.09
2024-02-04T09:51:19.698Z,11.28
2024-02-04T09:53:46.664Z,11.94
2024-02-04T09:56:15.804Z,12.49
2024-02-04T09:58:42.947Z,12.78
2024-02-04T10:01:10.438Z,13.07
2024-02-04T10:03:36.495Z,13.09
2024-02-04T10:06:02.497Z,13.58
2024-02-04T10:08:28.861Z,14.10
2024-02-04T10:10:56.155Z,14.54
2024-02-04T10:13:22.846Z,14.70
2024-02-04T10:15:49.943Z,14.23
2024-02-04T10:18:15.928Z,14.26
2024-02-04T10:20:41.656Z,14.36
2024-02-04T10:23:07.341Z,14.21
2024-02-04T10:25:33.321Z,14.44
2024-02-04T10:27:59.572Z,15.05
2024-02-04T10:30:25.536Z,15.03
2024-02-04T10:32:55.250Z,14.78
2024-02-04T10:35:24.738Z,14.67
2024-02-04T10:37:54.017Z,14.66
2024-02-04T10:40:20.294Z,14.42
2024-02-04T10:42:50.088Z,14.26
2024-02-04T10:45:19.241Z,14.29
2024-02-04T10:47:51.898Z,14.30
2024-02-04T10:50:17.959Z,13.89
2024-02-04T10:52:47.708Z,13.61
2024-02-04T10:55:14.388Z,13.53
2024-02-04T10:57:41.368Z,13.29
2024-02-04T11:00:12.464Z,13.16
2024-02-04T11:02:39.695Z,12.99
2024-02-04T11:05:06.838Z,12.79
2024-02-04T11:07:36.000Z,12.53
2024-02-04T11:10:02.800Z,12.41
2024-02-04T11:12:30.696Z,12.45
2024-02-04T11:15:01.286Z,12.43
2024-02-04T11:17:29.739Z,12.66
2024-02-04T11:20:10.591Z,12.74
2024-02-04T11:22:56.895Z,12.82
2024-02-04T11:25:44.546Z,12.70
2024-02-04T11:28:13.004Z,12.66
2024-02-04T11:30:39.473Z,12.49
2024-02-04T11:33:06.490Z,12.48
2024-02-04T11:35:34.324Z,12.42
2024-02-04T11:38:01.556Z,12.40
2024-02-04T11:40:41.035Z,12.29
2024-02-04T11:43:08.734Z,12.20
2024-02-04T11:45:39.884Z,12.16
2024-02-04T11:48:08.370Z,12.20
2024-02-04T11:50:34.640Z,12.08
2024-02-04T11:53:11.122Z,12.14
2024-02-04T11:55:40.217Z,12.21
2024-02-04T11:58:08.794Z,12.33
2024-02-04T12:00:37.788Z,12.46
2024-02-04T12:03:07.932Z,12.38
2024-02-04T12:05:35.584Z,12.42
2024-02-04T12:08:09.169Z,12.64
2024-02-04T12:10:39.009Z,12.78
2024-02-04T12:13:06.456Z,12.86
2024-02-04T12:25:40.495Z,13.23
2024-02-04T12:28:09.677Z,13.43
2024-02-04T12:30:35.481Z,13.55
2024-02-04T12:33:03.085Z,13.65
2024-02-04T12:35:29.911Z,13.59
2024-02-04T12:37:58.245Z,13.76
2024-02-04T12:40:30.466Z,13.85
2024-02-04T12:43:06.310Z,14.12
2024-02-04T12:45:33.159Z,13.97
2024-02-04T12:47:59.606Z,13.58
2024-02-04T13:01:14.734Z,13.76
2024-02-04T13:03:40.623Z,14.04
2024-02-04T13:06:07.021Z,14.32
2024-02-04T13:08:32.797Z,14.42
2024-02-04T13:10:59.298Z,14.31
2024-02-04T13:13:29.887Z,13.87
2024-02-04T13:15:55.962Z,13.69
2024-02-04T13:18:21.851Z,13.30
2024-02-04T13:20:47.620Z,13.25
2024-02-04T13:23:13.398Z,13.74
2024-02-04T13:25:39.344Z,14.54
2024-02-04T13:28:05.959Z,15.32
2024-02-04T13:30:32.188Z,15.44
2024-02-04T13:32:58.911Z,15.21
2024-02-04T13:35:25.416Z,15.05
2024-02-04T13:37:53.420Z,14.71
2024-02-04T13:40:20.717Z,14.27
2024-02-04T13:42:47.037Z,14.20
2024-02-04T13:45:17.407Z,14.10
2024-02-04T13:47:43.806Z,14.13
2024-02-04T13:50:11.748Z,14.16
2024-02-04T13:52:38.503Z,14.06
2024-02-04T13:55:11.182Z,13.74
2024-02-04T13:57:37.455Z,13.60
2024-02-04T14:00:06.310Z,13.77
2024-02-04T14:02:33.149Z,14.27
2024-02-04T14:04:59.256Z,14.82
2024-02-04T14:07:26.875Z,15.23
2024-02-04T14:09:52.706Z,15.32
2024-02-04T14:12:18.965Z,15.43
2024-02-04T14:14:44.973Z,15.31
2024-02-04T14:17:10.992Z,15.41
2024-02-04T14:19:37.105Z,15.43
2024-02-04T14:22:02.973Z,15.35
2024-02-04T14:24:28.725Z,14.86
2024-02-04T14:26:59.365Z,14.79
2024-02-04T14:29:25.404Z,14.78
2024-02-04T14:31:51.226Z,14.35
2024-02-04T14:34:16.996Z,13.82
2024-02-04T14:36:42.982Z,13.35
2024-02-04T14:39:09.699Z,13.03
2024-02-04T14:41:38.799Z,12.89
2024-02-04T14:44:04.718Z,12.83
2024-02-04T14:46:30.474Z,12.71
2024-02-04T14:48:56.349Z,12.57
2024-02-04T14:51:22.162Z,12.34
2024-02-04T14:53:47.832Z,12.28
2024-02-04T14:56:13.561Z,12.14
2024-02-04T14:58:39.315Z,12.04
2024-02-04T15:01:05.512Z,11.98
2024-02-04T15:03:32.532Z,11.89
2024-02-04T15:05:58.389Z,11.84
2024-02-04T15:08:24.366Z,11.71
2024-02-04T15:10:50.090Z,11.71
2024-02-04T15:13:16.715Z,11.61
2024-02-04T15:15:42.670Z,11.52
2024-02-04T15:18:09.061Z,11.50
2024-02-04T15:20:35.353Z,11.41
2024-02-04T15:23:02.189Z,11.36
2024-02-04T15:25:28.435Z,11.23
2024-02-04T15:27:56.467Z,11.21
2024-02-04T15:30:22.654Z,11.07
2024-02-04T15:32:48.643Z,10.97
2024-02-04T15:35:15.266Z,10.93
2024-02-04T15:37:41.175Z,10.81
2024-02-04T15:40:07.476Z,10.79
2024-02-04T15:42:33.329Z,10.81
2024-02-04T15:44:59.085Z,10.72
2024-02-04T15:47:26.978Z,10.60
2024-02-04T15:49:53.084Z,10.53
2024-02-04T15:52:19.506Z,10.49
2024-02-04T15:54:45.525Z,10.39
2024-02-04T15:57:13.364Z,10.31
2024-02-04T16:00:02.267Z,10.27
2024-02-04T16:02:28.890Z,10.26
2024-02-04T16:04:55.099Z,10.28
2024-02-04T16:07:23.597Z,10.33
2024-02-04T16:09:51.072Z,10.31
2024-02-04T16:12:21.352Z,10.33
2024-02-04T16:14:49.534Z,10.35
2024-02-04T16:17:18.477Z,10.30
2024-02-04T16:19:50.064Z,10.24
2024-02-04T16:22:17.518Z,10.22
2024-02-04T16:24:43.859Z,10.17
2024-02-04T16:27:10.182Z,10.15
2024-02-04T16:29:37.079Z,10.07
2024-02-04T16:32:05.885Z,9.97
2024-02-04T16:34:34.926Z,9.90
2024-02-04T16:37:03.412Z,9.81
2024-02-04T16:39:30.125Z,9.79
2024-02-04T16:41:55.889Z,9.75
2024-02-04T16:44:21.633Z,9.64
2024-02-04T16:46:47.305Z,9.67
2024-02-04T16:49:17.302Z,9.61
2024-02-04T16:51:45.776Z,9.64
2024-02-04T16:54:11.710Z,9.61
2024-02-04T16:56:40.252Z,9.53
2024-02-04T16:59:06.733Z,9.56
2024-02-04T17:01:33.369Z,9.56
2024-02-04T17:04:00.336Z,9.52
2024-02-04T17:06:26.965Z,9.52
2024-02-04T17:08:53.534Z,9.50
2024-02-04T17:11:19.517Z,9.53
2024-02-04T17:13:47.760Z,9.52
2024-02-04T17:16:36.689Z,9.49
2024-02-04T17:19:22.621Z,9.45
2024-02-04T17:21:51.516Z,9.50
2024-02-04T17:24:28.775Z,9.48
2024-02-04T17:26:56.934Z,9.49
2024-02-04T17:29:24.020Z,9.47
2024-02-04T17:31:50.695Z,9.52
2024-02-04T17:34:16.792Z,9.52
2024-02-04T17:36:42.679Z,9.51
2024-02-04T17:39:08.727Z,9.49
2024-02-04T17:41:34.591Z,9.43
2024-02-04T17:44:00.745Z,9.42
2024-02-04T17:46:26.546Z,9.43
2024-02-04T17:48:52.514Z,9.47
2024-02-04T17:51:18.603Z,9.44
2024-02-04T17:53:44.752Z,9.39
2024-02-04T17:56:17.411Z,9.34
2024-02-04T17:58:43.127Z,9.27
2024-02-04T18:01:08.910Z,9.23
2024-02-04T18:03:35.725Z,9.23
2024-02-04T18:06:01.738Z,9.13
2024-02-04T18:08:29.399Z,9.11
2024-02-04T18:10:55.485Z,9.13
2024-02-04T18:13:21.409Z,9.23
2024-02-04T18:15:47.280Z,9.12
2024-02-04T18:18:14.128Z,9.06
2024-02-04T18:20:40.068Z,9.09
2024-02-04T18:23:05.780Z,9.08
2024-02-04T18:25:31.505Z,9.00
2024-02-04T18:27:57.363Z,8.85
2024-02-04T18:30:24.845Z,8.84
2024-02-04T18:32:50.744Z,8.94
2024-02-04T18:35:16.557Z,8.94
2024-02-04T18:37:42.291Z,8.95
2024-02-04T18:40:08.822Z,8.89
2024-02-04T18:42:35.243Z,8.80
2024-02-04T18:45:01.021Z,8.82
2024-02-04T18:47:26.749Z,8.79
2024-02-04T18:49:55.723Z,8.76
2024-02-04T18:52:22.274Z,8.76
2024-02-04T18:54:48.199Z,8.77
2024-02-04T18:57:14.288Z,8.79
2024-02-04T18:59:40.314Z,8.78
2024-02-04T19:02:07.652Z,8.70
2024-02-04T19:04:33.614Z,8.62
2024-02-04T19:07:01.249Z,8.51
2024-02-04T19:09:27.888Z,8.58
2024-02-04T19:11:53.693Z,8.54
2024-02-04T19:14:21.386Z,8.50
2024-02-04T19:16:47.121Z,8.51
2024-02-04T19:19:13.930Z,8.52
2024-02-04T19:21:44.579Z,8.53
2024-02-04T19:24:10.305Z,8.54
2024-02-04T19:26:36.027Z,8.49
2024-02-04T19:29:01.846Z,8.50
2024-02-04T19:31:27.924Z,8.47
2024-02-04T19:33:53.762Z,8.47
2024-02-04T19:36:20.286Z,8.44
2024-02-04T19:38:45.958Z,8.43
2024-02-04T19:41:11.959Z,8.45
2024-02-04T19:43:37.745Z,8.47
2024-02-04T19:46:05.645Z,8.46
2024-02-04T19:48:31.398Z,8.40
2024-02-04T19:50:57.113Z,8.33
2024-02-04T19:53:22.976Z,8.36
2024-02-04T19:55:48.788Z,8.34
2024-02-04T19:58:15.519Z,8.35
2024-02-04T20:00:41.592Z,8.33
2024-02-04T20:03:07.760Z,8.31
2024-02-04T20:05:33.932Z,8.26
2024-02-04T20:07:59.813Z,8.24
2024-02-04T20:10:25.658Z,8.18
2024-02-04T20:12:52.564Z,8.25
2024-02-04T20:15:27.104Z,8.22
2024-02-04T20:17:56.755Z,8.25
2024-02-04T20:20:23.901Z,8.25
2024-02-04T20:22:57.503Z,8.22
2024-02-04T20:25:29.894Z,8.24
2024-02-04T20:27:56.947Z,8.20
2024-02-04T20:30:26.189Z,8.14
2024-02-04T20:32:52.326Z,8.17
2024-02-04T20:35:18.205Z,8.17
2024-02-04T20:37:43.971Z,8.16
2024-02-04T20:40:11.098Z,8.14
2024-02-04T20:42:36.901Z,8.15
2024-02-04T20:45:02.659Z,8.17
2024-02-04T20:47:28.496Z,8.20
2024-02-04T20:49:54.413Z,8.20
2024-02-04T20:52:20.351Z,8.16
2024-02-04T20:54:46.692Z,8.14
2024-02-04T20:57:12.764Z,8.19
2024-02-04T20:59:38.487Z,8.19
2024-02-04T21:02:04.457Z,8.22
2024-02-04T21:04:30.429Z,8.17
2024-02-04T21:06:56.348Z,8.15
2024-02-04T21:09:22.073Z,8.09
2024-02-04T21:11:47.953Z,8.07
2024-02-04T21:14:14.097Z,8.03
2024-02-04T21:16:39.905Z,8.04
2024-02-04T21:19:07.484Z,8.05
2024-02-04T21:21:33.326Z,8.03
2024-02-04T21:24:01.778Z,8.01
2024-02-04T21:26:27.912Z,7.99
2024-02-04T21:28:53.712Z,7.97
2024-02-04T21:31:19.582Z,7.83
2024-02-04T21:33:45.586Z,7.93
2024-02-04T21:36:12.377Z,7.92
2024-02-04T21:38:41.122Z,7.88
2024-02-04T21:41:06.923Z,7.76
2024-02-04T21:43:32.858Z,7.72
2024-02-04T21:45:58.667Z,7.63
2024-02-04T21:48:24.957Z,7.55
2024-02-04T21:50:51.099Z,7.52
2024-02-04T21:53:17.170Z,7.62
2024-02-04T21:55:47.866Z,7.62
2024-02-04T21:58:13.985Z,7.57
2024-02-04T22:00:42.279Z,7.51
2024-02-04T22:03:09.549Z,7.50
2024-02-04T22:05:37.729Z,7.49
2024-02-04T22:08:03.763Z,7.47
2024-02-04T22:10:29.485Z,7.38
2024-02-04T22:12:55.328Z,7.39
2024-02-04T22:15:21.878Z,7.37
2024-02-04T22:17:47.745Z,7.35
2024-02-04T22:20:14.858Z,7.33
2024-02-04T22:22:41.213Z,7.23
2024-02-04T22:25:09.083Z,7.26
2024-02-04T22:27:36.094Z,7.20
2024-02-04T22:30:04.058Z,7.18
2024-02-04T22:32:31.008Z,7.15
2024-02-04T22:34:56.790Z,7.07
2024-02-04T22:37:22.638Z,7.02
2024-02-04T22:39:48.703Z,6.93
2024-02-04T22:42:14.833Z,6.89
2024-02-04T22:44:40.585Z,6.89
2024-02-04T22:47:06.462Z,6.90
2024-02-04T22:49:32.476Z,6.94
2024-02-04T22:51:58.296Z,6.91
2024-02-04T22:54:24.007Z,6.89
2024-02-04T22:56:49.754Z,6.94
2024-02-04T22:59:16.067Z,6.91
2024-02-04T23:01:41.874Z,6.83
2024-02-04T23:04:08.467Z,6.78
2024-02-04T23:06:34.465Z,6.74
2024-02-04T23:09:00.310Z,6.73
2024-02-04T23:11:26.341Z,6.70
2024-02-04T23:13:52.194Z,6.73
2024-02-04T23:16:21.293Z,6.72
2024-02-04T23:18:47.682Z,6.65
2024-02-04T23:21:13.887Z,6.55
2024-02-04T23:23:39.763Z,6.59
2024-02-04T23:26:05.506Z,6.51
2024-02-04T23:28:31.304Z,6.39
2024-02-04T23:30:57.069Z,6.36
2024-02-04T23:33:24.220Z,6.30
2024-02-04T23:35:49.993Z,6.29
2024-02-04T23:38:15.756Z,6.30
2024-02-04T23:40:42.011Z,6.30
2024-02-04T23:43:07.803Z,6.35
2024-02-04T23:45:33.951Z,6.40
2024-02-04T23:47:59.827Z,6.48
2024-02-04T23:50:25.610Z,6.51
2024-02-04T23:52:52.231Z,6.54
2024-02-04T23:55:20.917Z,6.54
2024-02-04T23:57:47.027Z,6.58
